Flugplatz Detmold

Für EDLJ sind keine METAR/TAF Berichte vorhanden.
Es werden die Flugwettermeldungen vom Flugplatz Buckeburg Airport in 39 km Entfernung angezeigt.

Bericht für ETHB

vom 09.03. um 06:20 UTC

Wind 8 kt aus 180°

Sichtweite 6000 m

schwacher Regen

aufgebrochene Bewölkung in 800 ft

bedeckt in 2500 ft

Temperatur 2.0°C

Taupunkt 1.0°C

Luftfeuchtigkeit 93%

Luftdruck 1017 hPa

ETHB 090620Z 18008KT 6000 -RA BKN008 OVC025 02/01 Q1017 GRN GRN TEMPO AMB

Prognose für ETHB

vom 09.03. um 05:18 UTC

Zwischen 06:00 UTC und 15:00 UTC

Wind 7 kt aus 160°

Sichtweite 4000 m

schwacher Regen

aufgebrochene Bewölkung in 800 ft

aufgebrochene Bewölkung in 1500 ft


Zwischen 06:00 UTC und 09:00 UTC zeitweise

Wind 10 kt aus 170°

Sichtweite 1200 m

Schnee

aufgebrochene Bewölkung in 300 ft

bedeckt in 700 ft


Zwischen 09:00 UTC und 15:00 UTC zeitweise

Wind 12 kt aus 200°

Sichtweite 2500 m

Regen

Schnee

aufgebrochene Bewölkung in 500 ft

TAF ETHB 090518Z 0906/0915 16007KT 4000 -RA BKN008 BKN015 TEMPO 0906/0909 17010KT 1200 SN BKN003 OVC007 TEMPO 0909/0915 20012KT 2500 RASN BKN005
Impressum